^^
Grace C. Lehan Memorial Weather Station Historical Data
Daily Summary for May 19, 2022 Units:  Both    English   Metric
Daily Weekly Monthly Yearly
  High: Low: Average:
Temperature: 62.7 °F /  17.1 °C 53.7 °F /  12.1 °C 57.6 °F /  14.2 °C
Dew Point: 57 °F /  13.9 °C 47.1 °F /  8.4 °C 54 °F /  12.2 °C
Humidity: 95% 59.7% 88%
Wind Speed: 0.8mph /  1.3km/h - 0mph /  0km/h
Wind Gust: 5mph /  8km/h - -
Wind- - SSW
Pressure: 29.86 in /  1011.1 hPa 29.66 in /  1004.3 hPa -
Precipitation: 0.43 in /  10.92 mm    
 
 
Tabular Data for May 19, 2022
Time Temperature Dew Point Pressure Wind Wind Speed Wind Gust Humidity Rainfall Rate (Hourly) solar
00:09 61.2 °F /  16.2 °C 47.1 °F /  8.4 °C 29.85in /  1010.7hPa Calm     59.7% 0.00in /  0mm 0 W/m2
00:14 61.2 °F /  16.2 °C 47.3 °F /  8.5 °C 29.85in /  1010.7hPa Calm     60.1% 0.00in /  0mm 0 W/m2
00:19 61.2 °F /  16.2 °C 47.6 °F /  8.7 °C 29.86in /  1011.1hPa Calm     61% 0.00in /  0mm 0 W/m2
00:24 61.1 °F /  16.2 °C 47.7 °F /  8.7 °C 29.86in /  1011.1hPa Calm     61.4% 0.00in /  0mm 0 W/m2
00:29 61.1 °F /  16.2 °C 48 °F /  8.9 °C 29.86in /  1011.1hPa Calm     62% 0.00in /  0mm 0 W/m2
00:34 61 °F /  16.1 °C 48.4 °F /  9.1 °C 29.86in /  1011.1hPa Calm     63% 0.00in /  0mm 0 W/m2
00:39 61 °F /  16.1 °C 48.4 °F /  9.1 °C 29.86in /  1011.1hPa Calm     63.3% 0.00in /  0mm 0 W/m2
00:44 60.9 °F /  16.1 °C 48.7 °F /  9.3 °C 29.86in /  1011.1hPa Calm     64% 0.00in /  0mm 0 W/m2
00:49 60.8 °F /  16 °C 48.8 °F /  9.3 °C 29.86in /  1011.1hPa Calm     64.4% 0.00in /  0mm 0 W/m2
00:54 60.7 °F /  15.9 °C 48.9 °F /  9.4 °C 29.86in /  1011.1hPa Calm     65% 0.00in /  0mm 0 W/m2
00:59 60.7 °F /  15.9 °C 49.2 °F /  9.6 °C 29.86in /  1011.1hPa Calm     65.9% 0.00in /  0mm 0 W/m2
01:04 60.6 °F /  15.9 °C 49.2 °F /  9.6 °C 29.86in /  1011.1hPa Calm     66% 0.00in /  0mm 0 W/m2
01:09 60.5 °F /  15.8 °C 49.7 °F /  9.8 °C 29.86in /  1011.1hPa Calm     67.5% 0.00in /  0mm 0 W/m2
01:14 60.4 °F /  15.8 °C 50 °F /  10 °C 29.86in /  1011.1hPa Calm     68.3% 0.00in /  0mm 0 W/m2
01:19 60.3 °F /  15.7 °C 50.2 °F /  10.1 °C 29.86in /  1011.1hPa Calm     69.1% 0.00in /  0mm 0 W/m2
01:24 60.2 °F /  15.7 °C 50.6 °F /  10.3 °C 29.85in /  1010.7hPa Calm     70.6% 0.00in /  0mm 0 W/m2
01:29 60 °F /  15.6 °C 50.8 °F /  10.4 °C 29.85in /  1010.7hPa Calm     71.6% 0.00in /  0mm 0 W/m2
01:34 59.8 °F /  15.4 °C 51.1 °F /  10.6 °C 29.85in /  1010.7hPa Calm     72.7% 0.00in /  0mm 0 W/m2
01:39 59.6 °F /  15.3 °C 51 °F /  10.6 °C 29.85in /  1010.7hPa Calm     73% 0.00in /  0mm 0 W/m2
01:44 59.5 °F /  15.3 °C 51.2 °F /  10.7 °C 29.85in /  1010.7hPa Calm     74.1% 0.00in /  0mm 0 W/m2
01:49 59.3 °F /  15.2 °C 51.4 °F /  10.8 °C 29.85in /  1010.7hPa Calm     75% 0.00in /  0mm 0 W/m2
01:54 59.1 °F /  15.1 °C 51.4 °F /  10.8 °C 29.85in /  1010.7hPa Calm     75.6% 0.00in /  0mm 0 W/m2
01:59 58.9 °F /  14.9 °C 51.4 °F /  10.8 °C 29.84in /  1010.4hPa Calm     76% 0.00in /  0mm 0 W/m2
02:04 58.7 °F /  14.8 °C 51.2 °F /  10.7 °C 29.83in /  1010hPa Calm     76% 0.00in /  0mm 0 W/m2
02:09 58.6 °F /  14.8 °C 51.2 °F /  10.7 °C 29.83in /  1010hPa Calm     76.4% 0.00in /  0mm 0 W/m2
02:14 58.4 °F /  14.7 °C 51.3 °F /  10.7 °C 29.83in /  1010hPa Calm     77.1% 0.00in /  0mm 0 W/m2
02:19 58.3 °F /  14.6 °C 51.5 °F /  10.8 °C 29.83in /  1010hPa Calm     78% 0.00in /  0mm 0 W/m2
02:24 58.1 °F /  14.5 °C 51.6 °F /  10.9 °C 29.83in /  1010hPa Calm     78.7% 0.00in /  0mm 0 W/m2
02:29 58.1 °F /  14.5 °C 52 °F /  11.1 °C 29.83in /  1010hPa Calm     80.3% 0.00in /  0mm 0 W/m2
02:34 58 °F /  14.4 °C 52.4 °F /  11.3 °C 29.83in /  1010hPa Calm     81.7% 0.01in /  0.25mm 0 W/m2
02:39 57.9 °F /  14.4 °C 52.7 °F /  11.5 °C 29.83in /  1010hPa Calm     82.7% 0.01in /  0.25mm 0 W/m2
02:44 57.8 °F /  14.3 °C 52.6 °F /  11.4 °C 29.83in /  1010hPa Calm     83% 0.01in /  0.25mm 0 W/m2
02:49 57.6 °F /  14.2 °C 52.7 °F /  11.5 °C 29.83in /  1010hPa Calm     83.5% 0.01in /  0.25mm 0 W/m2
02:54 57.5 °F /  14.2 °C 52.7 °F /  11.5 °C 29.83in /  1010hPa Calm     84% 0.01in /  0.25mm 0 W/m2
02:59 57.3 °F /  14.1 °C 52.7 °F /  11.5 °C 29.83in /  1010hPa Calm     84.6% 0.01in /  0.25mm 0 W/m2
03:04 57.2 °F /  14 °C 52.8 °F /  11.6 °C 29.83in /  1010hPa Calm     85% 0.01in /  0.25mm 0 W/m2
03:09 57.1 °F /  13.9 °C 52.8 °F /  11.6 °C 29.83in /  1010hPa Calm     85.7% 0.02in /  0.51mm 0 W/m2
03:14 56.9 °F /  13.8 °C 52.8 °F /  11.6 °C 29.83in /  1010hPa Calm     86.2% 0.02in /  0.51mm 0 W/m2
03:19 56.8 °F /  13.8 °C 53 °F /  11.7 °C 29.82in /  1009.7hPa Calm     87% 0.02in /  0.51mm 0 W/m2
03:24 56.8 °F /  13.8 °C 53.1 °F /  11.7 °C 29.83in /  1010hPa Calm     87.5% 0.03in /  0.76mm 0 W/m2
03:29 56.7 °F /  13.7 °C 53.2 °F /  11.8 °C 29.83in /  1010hPa Calm     88% 0.03in /  0.76mm 0 W/m2
03:34 56.6 °F /  13.7 °C 53.4 °F /  11.9 °C 29.83in /  1010hPa Calm     88.9% 0.04in /  1.02mm 0 W/m2
03:39 56.6 °F /  13.7 °C 53.4 °F /  11.9 °C 29.83in /  1010hPa Calm     89% 0.04in /  1.02mm 0 W/m2
03:44 56.5 °F /  13.6 °C 53.3 °F /  11.8 °C 29.82in /  1009.7hPa Calm     89% 0.05in /  1.27mm 0 W/m2
03:49 56.4 °F /  13.6 °C 53.3 °F /  11.8 °C 29.82in /  1009.7hPa Calm     89.4% 0.05in /  1.27mm 0 W/m2
03:54 56.3 °F /  13.5 °C 53.4 °F /  11.9 °C 29.82in /  1009.7hPa Calm     90% 0.05in /  1.27mm 0 W/m2
03:59 56.2 °F /  13.4 °C 53.3 °F /  11.8 °C 29.82in /  1009.7hPa Calm     90% 0.06in /  1.52mm 0 W/m2
04:00 56.1 °F /  13.4 °C 53.2 °F /  11.8 °C 29.82in /  1009.7hPa Calm     90% 0.06in /  1.52mm 0 W/m2
04:09 56 °F /  13.3 °C 53.3 °F /  11.8 °C 29.82in /  1009.7hPa Calm     90.6% 0.06in /  1.52mm 0 W/m2
04:14 56 °F /  13.3 °C 53.4 °F /  11.9 °C 29.82in /  1009.7hPa Calm     91% 0.06in /  1.52mm 0 W/m2
04:19 56 °F /  13.3 °C 53.4 °F /  11.9 °C 29.81in /  1009.4hPa Calm     91% 0.06in /  1.52mm 0 W/m2
04:24 56 °F /  13.3 °C 53.5 °F /  11.9 °C 29.81in /  1009.4hPa Calm     91.3% 0.06in /  1.52mm 0 W/m2
04:29 56 °F /  13.3 °C 53.5 °F /  11.9 °C 29.81in /  1009.4hPa Calm     91.3% 0.07in /  1.78mm 0 W/m2
04:34 56 °F /  13.3 °C 53.7 °F /  12.1 °C 29.81in /  1009.4hPa Calm     92% 0.07in /  1.78mm 0 W/m2
04:39 55.9 °F /  13.3 °C 53.6 °F /  12 °C 29.81in /  1009.4hPa Calm     92% 0.04in /  1.02mm 0 W/m2
04:44 55.8 °F /  13.2 °C 53.6 °F /  12 °C 29.81in /  1009.4hPa Calm     92% 0.04in /  1.02mm 0 W/m2
04:49 55.8 °F /  13.2 °C 53.5 °F /  11.9 °C 29.81in /  1009.4hPa Calm     92% 0.05in /  1.27mm 0 W/m2
04:54 55.7 °F /  13.2 °C 53.4 °F /  11.9 °C 29.80in /  1009hPa Calm     92% 0.05in /  1.27mm 0 W/m2
04:59 55.7 °F /  13.2 °C 53.4 °F /  11.9 °C 29.80in /  1009hPa Calm     92% 0.06in /  1.52mm 0 W/m2
05:04 55.6 °F /  13.1 °C 53.3 °F /  11.8 °C 29.80in /  1009hPa Calm     92% 0.06in /  1.52mm 0 W/m2
05:09 55.6 °F /  13.1 °C 53.4 °F /  11.9 °C 29.79in /  1008.7hPa Calm     92.1% 0.03in /  0.76mm 0 W/m2
05:14 55.6 °F /  13.1 °C 53.6 °F /  12 °C 29.79in /  1008.7hPa Calm     93% 0.04in /  1.02mm 0 W/m2
05:19 55.6 °F /  13.1 °C 53.6 °F /  12 °C 29.79in /  1008.7hPa Calm     93% 0.05in /  1.27mm 0 W/m2
05:24 55.5 °F /  13.1 °C 53.5 °F /  11.9 °C 29.79in /  1008.7hPa Calm     93% 0.05in /  1.27mm 0 W/m2
05:29 55.5 °F /  13.1 °C 53.5 °F /  11.9 °C 29.79in /  1008.7hPa Calm     93% 0.06in /  1.52mm 0 W/m2
05:34 55.5 °F /  13.1 °C 53.5 °F /  11.9 °C 29.79in /  1008.7hPa Calm     93% 0.07in /  1.78mm 0 W/m2
05:39 55.5 °F /  13.1 °C 53.5 °F /  11.9 °C 29.80in /  1009hPa Calm     93% 0.08in /  2.03mm 0 W/m2
05:44 55.5 °F /  13.1 °C 53.5 °F /  11.9 °C 29.80in /  1009hPa Calm     93% 0.08in /  2.03mm 0 W/m2
05:49 55.5 °F /  13.1 °C 53.5 °F /  11.9 °C 29.80in /  1009hPa Calm     93% 0.09in /  2.29mm 0 W/m2
05:54 55.5 °F /  13.1 °C 53.5 °F /  11.9 °C 29.80in /  1009hPa Calm     93% 0.10in /  2.54mm 0 W/m2
05:59 55.5 °F /  13.1 °C 53.5 °F /  11.9 °C 29.80in /  1009hPa Calm     93% 0.11in /  2.79mm 0 W/m2
06:04 55.5 °F /  13.1 °C 53.5 °F /  11.9 °C 29.81in /  1009.4hPa Calm     93% 0.11in /  2.79mm 0 W/m2
06:09 55.4 °F /  13 °C 53.4 °F /  11.9 °C 29.80in /  1009hPa Calm     93% 0.11in /  2.79mm 5 W/m2
06:14 55.2 °F /  12.9 °C 53.2 °F /  11.8 °C 29.80in /  1009hPa Calm     93% 0.12in /  3.05mm 5 W/m2
06:19 55 °F /  12.8 °C 53 °F /  11.7 °C 29.80in /  1009hPa Calm     93% 0.13in /  3.3mm 5 W/m2
06:24 54.8 °F /  12.7 °C 52.8 °F /  11.6 °C 29.81in /  1009.4hPa Calm     93% 0.14in /  3.56mm 5 W/m2
06:29 54.8 °F /  12.7 °C 52.8 °F /  11.6 °C 29.81in /  1009.4hPa Calm     93% 0.15in /  3.81mm 5 W/m2
06:34 54.8 °F /  12.7 °C 52.8 °F /  11.6 °C 29.81in /  1009.4hPa Calm     93% 0.15in /  3.81mm 7 W/m2
06:38 54.8 °F /  12.7 °C 52.9 °F /  11.6 °C 29.80in /  1009hPa Calm     93.1% 0.12in /  3.05mm 11 W/m2
06:44 54.8 °F /  12.7 °C 53.1 °F /  11.7 °C 29.80in /  1009hPa Calm     94% 0.13in /  3.3mm 9 W/m2
06:49 54.8 °F /  12.7 °C 53.1 °F /  11.7 °C 29.81in /  1009.4hPa Calm     94% 0.14in /  3.56mm 5 W/m2
06:54 54.9 °F /  12.7 °C 53.2 °F /  11.8 °C 29.81in /  1009.4hPa Calm     94% 0.15in /  3.81mm 23 W/m2
06:59 54.9 °F /  12.7 °C 53.2 °F /  11.8 °C 29.79in /  1008.7hPa Calm     94% 0.17in /  4.32mm 26 W/m2
07:04 54.9 °F /  12.7 °C 53.2 °F /  11.8 °C 29.79in /  1008.7hPa Calm     94% 0.17in /  4.32mm 16 W/m2
07:09 54.9 °F /  12.7 °C 53.2 °F /  11.8 °C 29.79in /  1008.7hPa West 0.1mph /  0.2km/h 3mph /  4.8km/h 94% 0.14in /  3.56mm 21 W/m2
07:14 54.8 °F /  12.7 °C 53.2 °F /  11.8 °C 29.79in /  1008.7hPa Calm   3mph /  4.8km/h 94% 0.14in /  3.56mm 21 W/m2
07:19 54.8 °F /  12.7 °C 53.1 °F /  11.7 °C 29.79in /  1008.7hPa Calm   3mph /  4.8km/h 94% 0.15in /  3.81mm 19 W/m2
07:24 54.8 °F /  12.7 °C 53.2 °F /  11.8 °C 29.79in /  1008.7hPa Calm   3mph /  4.8km/h 94% 0.15in /  3.81mm 12 W/m2
07:29 54.9 °F /  12.7 °C 53.2 °F /  11.8 °C 29.79in /  1008.7hPa Calm   3mph /  4.8km/h 94% 0.16in /  4.06mm 18 W/m2
07:34 54.9 °F /  12.7 °C 53.2 °F /  11.8 °C 29.79in /  1008.7hPa Calm   3mph /  4.8km/h 94% 0.16in /  4.06mm 18 W/m2
07:39 54.9 °F /  12.7 °C 53.2 °F /  11.8 °C 29.79in /  1008.7hPa Calm     94% 0.10in /  2.54mm 21 W/m2
07:44 54.9 °F /  12.7 °C 53.2 °F /  11.8 °C 29.79in /  1008.7hPa Calm   1mph /  1.6km/h 94% 0.10in /  2.54mm 25 W/m2
07:49 54.9 °F /  12.7 °C 53.2 °F /  11.8 °C 29.79in /  1008.7hPa Calm   1mph /  1.6km/h 94% 0.10in /  2.54mm 25 W/m2
07:54 54.9 °F /  12.7 °C 53.2 °F /  11.8 °C 29.79in /  1008.7hPa Calm   1mph /  1.6km/h 94% 0.10in /  2.54mm 21 W/m2
07:59 54.9 °F /  12.7 °C 53.2 °F /  11.8 °C 29.79in /  1008.7hPa Calm   1mph /  1.6km/h 94% 0.11in /  2.79mm 26 W/m2
08:00 54.9 °F /  12.7 °C 53.2 °F /  11.8 °C 29.79in /  1008.7hPa Calm   1mph /  1.6km/h 94% 0.11in /  2.79mm 26 W/m2
08:09 54.9 °F /  12.7 °C 53.2 °F /  11.8 °C 29.78in /  1008.4hPa Calm     94% 0.05in /  1.27mm 19 W/m2
08:14 54.9 °F /  12.7 °C 53.2 °F /  11.8 °C 29.78in /  1008.4hPa Calm     94% 0.06in /  1.52mm 16 W/m2
08:19 55 °F /  12.8 °C 53.6 °F /  12 °C 29.78in /  1008.4hPa Calm     95% 0.06in /  1.52mm 39 W/m2
08:24 55.1 °F /  12.8 °C 53.7 °F /  12.1 °C 29.78in /  1008.4hPa Calm     95% 0.06in /  1.52mm 67 W/m2
08:29 55.2 °F /  12.9 °C 53.8 °F /  12.1 °C 29.78in /  1008.4hPa Calm     95% 0.06in /  1.52mm 79 W/m2
08:34 55.3 °F /  12.9 °C 53.9 °F /  12.2 °C 29.78in /  1008.4hPa Calm     95% 0.06in /  1.52mm 54 W/m2
08:38 55.3 °F /  12.9 °C 53.9 °F /  12.2 °C 29.78in /  1008.4hPa Calm     95% 0.03in /  0.76mm 37 W/m2
08:43 55.4 °F /  13 °C 54 °F /  12.2 °C 29.78in /  1008.4hPa West 0.3mph /  0.5km/h 3mph /  4.8km/h 95% 0.03in /  0.76mm 21 W/m2
08:49 55.4 °F /  13 °C 54 °F /  12.2 °C 29.78in /  1008.4hPa Calm   3mph /  4.8km/h 95% 0.03in /  0.76mm 25 W/m2
08:54 55.4 °F /  13 °C 54 °F /  12.2 °C 29.78in /  1008.4hPa Calm   3mph /  4.8km/h 95% 0.03in /  0.76mm 25 W/m2
08:59 55.4 °F /  13 °C 54 °F /  12.2 °C 29.78in /  1008.4hPa Calm   3mph /  4.8km/h 95% 0.03in /  0.76mm 28 W/m2
09:04 55.4 °F /  13 °C 54 °F /  12.2 °C 29.78in /  1008.4hPa Calm   3mph /  4.8km/h 95% 0.03in /  0.76mm 32 W/m2
09:09 55.4 °F /  13 °C 54 °F /  12.2 °C 29.77in /  1008hPa Calm     95% 0.02in /  0.51mm 37 W/m2
09:14 55.4 °F /  13 °C 54 °F /  12.2 °C 29.77in /  1008hPa Calm     95% 0.02in /  0.51mm 33 W/m2
09:19 55.5 °F /  13.1 °C 54.1 °F /  12.3 °C 29.77in /  1008hPa Calm     95% 0.03in /  0.76mm 44 W/m2
09:24 55.5 °F /  13.1 °C 54.1 °F /  12.3 °C 29.77in /  1008hPa Calm     95% 0.03in /  0.76mm 40 W/m2
09:29 55.5 °F /  13.1 °C 54.1 °F /  12.3 °C 29.76in /  1007.7hPa Calm     95% 0.03in /  0.76mm 26 W/m2
09:34 55.5 °F /  13.1 °C 54.1 °F /  12.3 °C 29.76in /  1007.7hPa Calm     95% 0.03in /  0.76mm 35 W/m2
09:39 55.5 °F /  13.1 °C 54.1 °F /  12.3 °C 29.76in /  1007.7hPa Calm     95% 0.03in /  0.76mm 54 W/m2
09:44 55.5 °F /  13.1 °C 54.1 °F /  12.3 °C 29.76in /  1007.7hPa Calm     95% 0.03in /  0.76mm 46 W/m2
09:49 55.5 °F /  13.1 °C 54.1 °F /  12.3 °C 29.76in /  1007.7hPa Calm     95% 0.03in /  0.76mm 42 W/m2
09:54 55.5 °F /  13.1 °C 54 °F /  12.2 °C 29.76in /  1007.7hPa Calm     95% 0.04in /  1.02mm 42 W/m2
09:59 55.4 °F /  13 °C 54 °F /  12.2 °C 29.76in /  1007.7hPa Calm     95% 0.04in /  1.02mm 90 W/m2
10:04 55.4 °F /  13 °C 54 °F /  12.2 °C 29.76in /  1007.7hPa Calm     95% 0.04in /  1.02mm 93 W/m2
10:09 55.4 °F /  13 °C 54 °F /  12.2 °C 29.76in /  1007.7hPa Calm     95% 0.04in /  1.02mm 86 W/m2
10:14 55.5 °F /  13.1 °C 54.1 °F /  12.3 °C 29.76in /  1007.7hPa Calm     95% 0.04in /  1.02mm 74 W/m2
10:19 55.6 °F /  13.1 °C 54.2 °F /  12.3 °C 29.75in /  1007.3hPa Calm   1mph /  1.6km/h 95% 0.04in /  1.02mm 76 W/m2
10:24 55.5 °F /  13.1 °C 54.1 °F /  12.3 °C 29.75in /  1007.3hPa Calm   1mph /  1.6km/h 95% 0.05in /  1.27mm 67 W/m2
10:29 55.5 °F /  13.1 °C 54.1 °F /  12.3 °C 29.75in /  1007.3hPa ESE 0.3mph /  0.5km/h 4mph /  6.4km/h 95% 0.05in /  1.27mm 72 W/m2
10:34 55.5 °F /  13.1 °C 54.1 °F /  12.3 °C 29.75in /  1007.3hPa Calm   4mph /  6.4km/h 95% 0.05in /  1.27mm 77 W/m2
10:39 55.6 °F /  13.1 °C 54.1 °F /  12.3 °C 29.75in /  1007.3hPa SE 0.1mph /  0.2km/h 2mph /  3.2km/h 95% 0.05in /  1.27mm 90 W/m2
10:44 55.6 °F /  13.1 °C 54.2 °F /  12.3 °C 29.75in /  1007.3hPa ESE 0.1mph /  0.2km/h 2mph /  3.2km/h 95% 0.05in /  1.27mm 107 W/m2
10:49 55.7 °F /  13.2 °C 54.3 °F /  12.4 °C 29.74in /  1007hPa SSE 0.2mph /  0.3km/h 4mph /  6.4km/h 95% 0.05in /  1.27mm 134 W/m2
10:54 55.8 °F /  13.2 °C 54.4 °F /  12.4 °C 29.74in /  1007hPa Calm   4mph /  6.4km/h 95% 0.05in /  1.27mm 220 W/m2
10:59 55.9 °F /  13.3 °C 54.4 °F /  12.4 °C 29.74in /  1007hPa Calm   4mph /  6.4km/h 95% 0.05in /  1.27mm 199 W/m2
11:04 56.1 °F /  13.4 °C 54.7 °F /  12.6 °C 29.74in /  1007hPa Calm   4mph /  6.4km/h 95% 0.05in /  1.27mm 276 W/m2
11:09 56.3 °F /  13.5 °C 54.8 °F /  12.7 °C 29.73in /  1006.7hPa Calm   1mph /  1.6km/h 95% 0.03in /  0.76mm 301 W/m2
11:14 56.4 °F /  13.6 °C 55 °F /  12.8 °C 29.73in /  1006.7hPa Calm   2mph /  3.2km/h 95% 0.03in /  0.76mm 387 W/m2
11:19 56.5 °F /  13.6 °C 55 °F /  12.8 °C 29.73in /  1006.7hPa Calm   2mph /  3.2km/h 95% 0.03in /  0.76mm 387 W/m2
11:24 56.6 °F /  13.7 °C 55.2 °F /  12.9 °C 29.73in /  1006.7hPa Calm   2mph /  3.2km/h 95% 0.03in /  0.76mm 160 W/m2
11:29 56.6 °F /  13.7 °C 55.2 °F /  12.9 °C 29.73in /  1006.7hPa SW 0.3mph /  0.5km/h 4mph /  6.4km/h 95% 0.03in /  0.76mm 121 W/m2
11:34 56.5 °F /  13.6 °C 55.1 °F /  12.8 °C 29.73in /  1006.7hPa South 0.8mph /  1.3km/h 5mph /  8km/h 95% 0.03in /  0.76mm 148 W/m2
11:39 56.4 °F /  13.6 °C 55 °F /  12.8 °C 29.73in /  1006.7hPa SSE 0.1mph /  0.2km/h 5mph /  8km/h 95% 0.01in /  0.25mm 190 W/m2
11:44 56.5 °F /  13.6 °C 55.1 °F /  12.8 °C 29.73in /  1006.7hPa Calm   5mph /  8km/h 95% 0.01in /  0.25mm 202 W/m2
11:49 56.6 °F /  13.7 °C 55.2 °F /  12.9 °C 29.73in /  1006.7hPa SW 0.5mph /  0.8km/h 5mph /  8km/h 95% 0.01in /  0.25mm 135 W/m2
11:54 56.6 °F /  13.7 °C 55.2 °F /  12.9 °C 29.73in /  1006.7hPa SW 0.1mph /  0.2km/h 5mph /  8km/h 95% 0.01in /  0.25mm 91 W/m2
11:59 56.5 °F /  13.6 °C 55.1 °F /  12.8 °C 29.73in /  1006.7hPa Calm   5mph /  8km/h 95% 0.01in /  0.25mm 76 W/m2
12:00 56.5 °F /  13.6 °C 55.1 °F /  12.8 °C 29.73in /  1006.7hPa Calm   5mph /  8km/h 95% 0.01in /  0.25mm 74 W/m2
12:09 56.5 °F /  13.6 °C 55.1 °F /  12.8 °C 29.72in /  1006.3hPa Calm   1mph /  1.6km/h 95% 0.00in /  0mm 62 W/m2
12:14 56.4 °F /  13.6 °C 55 °F /  12.8 °C 29.72in /  1006.3hPa SW 0.4mph /  0.6km/h 4mph /  6.4km/h 95% 0.00in /  0mm 69 W/m2
12:19 56.3 °F /  13.5 °C 54.9 °F /  12.7 °C 29.72in /  1006.3hPa SSW 0.2mph /  0.3km/h 4mph /  6.4km/h 95% 0.00in /  0mm 74 W/m2
12:24 56.3 °F /  13.5 °C 54.8 °F /  12.7 °C 29.72in /  1006.3hPa Calm   4mph /  6.4km/h 94.8% 0.00in /  0mm 70 W/m2
12:29 56.3 °F /  13.5 °C 54.7 °F /  12.6 °C 29.72in /  1006.3hPa SSW 0.3mph /  0.5km/h 4mph /  6.4km/h 94.6% 0.00in /  0mm 67 W/m2
12:34 56.2 °F /  13.4 °C 54.5 °F /  12.5 °C 29.72in /  1006.3hPa SSW 0.3mph /  0.5km/h 4mph /  6.4km/h 94% 0.00in /  0mm 72 W/m2
12:39 56.2 °F /  13.4 °C 54.5 °F /  12.5 °C 29.71in /  1006hPa Calm   3mph /  4.8km/h 94% 0.00in /  0mm 76 W/m2
12:44 56.4 °F /  13.6 °C 54.7 °F /  12.6 °C 29.71in /  1006hPa Calm   3mph /  4.8km/h 94% 0.00in /  0mm 84 W/m2
12:49 56.5 °F /  13.6 °C 54.8 °F /  12.7 °C 29.71in /  1006hPa Calm   3mph /  4.8km/h 94% 0.00in /  0mm 88 W/m2
12:54 56.5 °F /  13.6 °C 54.8 °F /  12.7 °C 29.71in /  1006hPa Calm   3mph /  4.8km/h 94% 0.00in /  0mm 98 W/m2
12:59 56.5 °F /  13.6 °C 54.8 °F /  12.7 °C 29.71in /  1006hPa Calm   3mph /  4.8km/h 94% 0.00in /  0mm 102 W/m2
13:04 56.7 °F /  13.7 °C 55 °F /  12.8 °C 29.71in /  1006hPa Calm   3mph /  4.8km/h 94% 0.00in /  0mm 102 W/m2
13:09 56.7 °F /  13.7 °C 55 °F /  12.8 °C 29.70in /  1005.6hPa Calm     94% 0.00in /  0mm 107 W/m2
13:14 56.7 °F /  13.7 °C 55 °F /  12.8 °C 29.69in /  1005.3hPa Calm     94% 0.00in /  0mm 86 W/m2
13:19 56.7 °F /  13.7 °C 55 °F /  12.8 °C 29.69in /  1005.3hPa SSW 0.4mph /  0.6km/h 3mph /  4.8km/h 94% 0.00in /  0mm 111 W/m2
13:24 56.5 °F /  13.6 °C 54.8 °F /  12.7 °C 29.68in /  1005hPa East 0.2mph /  0.3km/h 5mph /  8km/h 94% 0.00in /  0mm 111 W/m2
13:29 56.4 °F /  13.6 °C 54.7 °F /  12.6 °C 29.69in /  1005.3hPa Calm   5mph /  8km/h 94% 0.00in /  0mm 111 W/m2
13:34 56.5 °F /  13.6 °C 54.8 °F /  12.7 °C 29.69in /  1005.3hPa SE 0.3mph /  0.5km/h 5mph /  8km/h 94% 0.00in /  0mm 139 W/m2
13:39 56.4 °F /  13.6 °C 54.7 °F /  12.6 °C 29.69in /  1005.3hPa SE 0.3mph /  0.5km/h 3mph /  4.8km/h 94% 0.00in /  0mm 163 W/m2
13:44 56.4 °F /  13.6 °C 54.7 °F /  12.6 °C 29.69in /  1005.3hPa SE 0.1mph /  0.2km/h 3mph /  4.8km/h 94% 0.00in /  0mm 181 W/m2
13:49 56.4 °F /  13.6 °C 54.7 °F /  12.6 °C 29.69in /  1005.3hPa Calm   3mph /  4.8km/h 94% 0.00in /  0mm 132 W/m2
13:54 56.6 °F /  13.7 °C 54.9 °F /  12.7 °C 29.69in /  1005.3hPa Calm   3mph /  4.8km/h 94% 0.00in /  0mm 192 W/m2
13:59 56.7 °F /  13.7 °C 55 °F /  12.8 °C 29.69in /  1005.3hPa Calm   3mph /  4.8km/h 94% 0.00in /  0mm 176 W/m2
14:04 56.7 °F /  13.7 °C 55 °F /  12.8 °C 29.69in /  1005.3hPa Calm   3mph /  4.8km/h 94% 0.00in /  0mm 142 W/m2
14:09 56.8 °F /  13.8 °C 55.1 °F /  12.8 °C 29.69in /  1005.3hPa Calm     94% 0.00in /  0mm 84 W/m2
14:14 57 °F /  13.9 °C 55.3 °F /  12.9 °C 29.69in /  1005.3hPa Calm   1mph /  1.6km/h 94% 0.00in /  0mm 142 W/m2
14:19 57.1 °F /  13.9 °C 55.4 °F /  13 °C 29.69in /  1005.3hPa Calm   1mph /  1.6km/h 94% 0.00in /  0mm 193 W/m2
14:24 57.2 °F /  14 °C 55.5 °F /  13.1 °C 29.69in /  1005.3hPa Calm   1mph /  1.6km/h 93.9% 0.00in /  0mm 345 W/m2
14:29 57.2 °F /  14 °C 55.4 °F /  13 °C 29.68in /  1005hPa Calm   1mph /  1.6km/h 93.4% 0.00in /  0mm 483 W/m2
14:34 57.7 °F /  14.3 °C 56 °F /  13.3 °C 29.68in /  1005hPa SW 0.2mph /  0.3km/h 4mph /  6.4km/h 94% 0.00in /  0mm 684 W/m2
14:39 58 °F /  14.4 °C 56.2 °F /  13.4 °C 29.67in /  1004.6hPa Calm   4mph /  6.4km/h 93.7% 0.00in /  0mm 773 W/m2
14:44 58.6 °F /  14.8 °C 56.7 °F /  13.7 °C 29.68in /  1005hPa SSE 0.1mph /  0.2km/h 4mph /  6.4km/h 93.5% 0.00in /  0mm 773 W/m2
14:49 59.1 °F /  15.1 °C 56.9 °F /  13.8 °C 29.68in /  1005hPa Calm   4mph /  6.4km/h 92.5% 0.00in /  0mm 494 W/m2
14:54 59.2 °F /  15.1 °C 56.4 °F /  13.6 °C 29.67in /  1004.6hPa SSW 0.1mph /  0.2km/h 4mph /  6.4km/h 90.4% 0.00in /  0mm 561 W/m2
14:59 59.5 °F /  15.3 °C 56.6 °F /  13.7 °C 29.67in /  1004.6hPa Calm   4mph /  6.4km/h 89.9% 0.00in /  0mm 561 W/m2
15:04 60 °F /  15.6 °C 56.7 °F /  13.7 °C 29.67in /  1004.6hPa SW 0.1mph /  0.2km/h 4mph /  6.4km/h 89% 0.00in /  0mm 446 W/m2
15:09 60.4 °F /  15.8 °C 56.9 °F /  13.8 °C 29.67in /  1004.6hPa Calm   3mph /  4.8km/h 88.1% 0.00in /  0mm 288 W/m2
15:14 60.7 °F /  15.9 °C 56.8 °F /  13.8 °C 29.67in /  1004.6hPa SW 0.1mph /  0.2km/h 3mph /  4.8km/h 86.8% 0.00in /  0mm 605 W/m2
15:19 61.1 °F /  16.2 °C 56.9 °F /  13.8 °C 29.67in /  1004.6hPa SSW 0.1mph /  0.2km/h 3mph /  4.8km/h 86% 0.00in /  0mm 311 W/m2
15:24 61.1 °F /  16.2 °C 56.2 °F /  13.4 °C 29.67in /  1004.6hPa SSW 0.1mph /  0.2km/h 3mph /  4.8km/h 84% 0.00in /  0mm 297 W/m2
15:29 61 °F /  16.1 °C 56 °F /  13.3 °C 29.67in /  1004.6hPa SSW 0.1mph /  0.2km/h 3mph /  4.8km/h 83.5% 0.00in /  0mm 255 W/m2
15:34 60.9 °F /  16.1 °C 55.8 °F /  13.2 °C 29.67in /  1004.6hPa SSW 0.2mph /  0.3km/h 3mph /  4.8km/h 83.2% 0.00in /  0mm 195 W/m2
15:39 60.8 °F /  16 °C 55.7 °F /  13.2 °C 29.67in /  1004.6hPa SW 0.1mph /  0.2km/h 3mph /  4.8km/h 83.4% 0.00in /  0mm 195 W/m2
15:44 60.6 °F /  15.9 °C 55.5 °F /  13.1 °C 29.67in /  1004.6hPa Calm   3mph /  4.8km/h 83.1% 0.00in /  0mm 165 W/m2
15:49 60.6 °F /  15.9 °C 55.7 °F /  13.2 °C 29.66in /  1004.3hPa SSW 0.1mph /  0.2km/h 3mph /  4.8km/h 83.9% 0.00in /  0mm 225 W/m2
15:54 60.6 °F /  15.9 °C 55.5 °F /  13.1 °C 29.67in /  1004.6hPa SSW 0.1mph /  0.2km/h 3mph /  4.8km/h 83.1% 0.00in /  0mm 267 W/m2
15:59 60.7 °F /  15.9 °C 55.9 °F /  13.3 °C 29.67in /  1004.6hPa SW 0.3mph /  0.5km/h 5mph /  8km/h 84% 0.00in /  0mm 221 W/m2
16:00 60.8 °F /  16 °C 55.9 °F /  13.3 °C 29.67in /  1004.6hPa Calm   5mph /  8km/h 84% 0.00in /  0mm 206 W/m2
16:09 60.9 °F /  16.1 °C 55.7 °F /  13.2 °C 29.67in /  1004.6hPa Calm   1mph /  1.6km/h 83% 0.00in /  0mm 213 W/m2
16:14 60.9 °F /  16.1 °C 55.7 °F /  13.2 °C 29.67in /  1004.6hPa Calm   1mph /  1.6km/h 82.8% 0.00in /  0mm 183 W/m2
16:19 61 °F /  16.1 °C 55.8 °F /  13.2 °C 29.67in /  1004.6hPa Calm   1mph /  1.6km/h 83% 0.00in /  0mm 167 W/m2
16:24 61 °F /  16.1 °C 55.8 °F /  13.2 °C 29.67in /  1004.6hPa Calm   1mph /  1.6km/h 83% 0.00in /  0mm 211 W/m2
16:29 61.1 °F /  16.2 °C 55.9 °F /  13.3 °C 29.67in /  1004.6hPa Calm   1mph /  1.6km/h 83% 0.00in /  0mm 237 W/m2
16:34 61.1 °F /  16.2 °C 55.9 °F /  13.3 °C 29.67in /  1004.6hPa SSW 0.1mph /  0.2km/h 2mph /  3.2km/h 82.9% 0.00in /  0mm 246 W/m2
16:39 61.1 °F /  16.2 °C 55.6 °F /  13.1 °C 29.67in /  1004.6hPa Calm   2mph /  3.2km/h 82.1% 0.00in /  0mm 258 W/m2
16:44 61.2 °F /  16.2 °C 56 °F /  13.3 °C 29.66in /  1004.3hPa Calm   2mph /  3.2km/h 83% 0.00in /  0mm 255 W/m2
16:49 61.4 °F /  16.3 °C 56.3 °F /  13.5 °C 29.67in /  1004.6hPa Calm   2mph /  3.2km/h 83.2% 0.00in /  0mm 264 W/m2
16:54 61.6 °F /  16.4 °C 56.1 °F /  13.4 °C 29.67in /  1004.6hPa Calm   2mph /  3.2km/h 82.3% 0.00in /  0mm 234 W/m2
16:59 61.8 °F /  16.6 °C 56.4 °F /  13.6 °C 29.67in /  1004.6hPa SW 0.1mph /  0.2km/h 2mph /  3.2km/h 82.5% 0.00in /  0mm 188 W/m2
17:04 61.9 °F /  16.6 °C 56.7 °F /  13.7 °C 29.67in /  1004.6hPa Calm   2mph /  3.2km/h 83% 0.00in /  0mm 221 W/m2
17:09 62 °F /  16.7 °C 56.7 °F /  13.7 °C 29.67in /  1004.6hPa Calm     82.7% 0.00in /  0mm 232 W/m2
17:14 62.1 °F /  16.7 °C 56.6 °F /  13.7 °C 29.67in /  1004.6hPa Calm     82.2% 0.00in /  0mm 151 W/m2
17:19 62.3 °F /  16.8 °C 56.5 °F /  13.6 °C 29.67in /  1004.6hPa SW 0.3mph /  0.5km/h 3mph /  4.8km/h 81.2% 0.00in /  0mm 113 W/m2
17:24 62.3 °F /  16.8 °C 56.6 °F /  13.7 °C 29.67in /  1004.6hPa Calm   3mph /  4.8km/h 81.5% 0.00in /  0mm 114 W/m2
17:29 62.3 °F /  16.8 °C 56.5 °F /  13.6 °C 29.67in /  1004.6hPa SW 0.2mph /  0.3km/h 4mph /  6.4km/h 81.2% 0.00in /  0mm 105 W/m2
17:34 62.2 °F /  16.8 °C 56.3 °F /  13.5 °C 29.67in /  1004.6hPa Calm   4mph /  6.4km/h 81% 0.00in /  0mm 218 W/m2
17:39 62.1 °F /  16.7 °C 56.3 °F /  13.5 °C 29.67in /  1004.6hPa SW 0.1mph /  0.2km/h 1mph /  1.6km/h 81.2% 0.00in /  0mm 213 W/m2
17:44 62.1 °F /  16.7 °C 56.3 °F /  13.5 °C 29.67in /  1004.6hPa Calm   1mph /  1.6km/h 81.2% 0.00in /  0mm 225 W/m2
17:49 62.2 °F /  16.8 °C 56.3 °F /  13.5 °C 29.67in /  1004.6hPa Calm   1mph /  1.6km/h 81.1% 0.00in /  0mm 225 W/m2
17:54 62.4 °F /  16.9 °C 56.8 °F /  13.8 °C 29.66in /  1004.3hPa WSW 0.5mph /  0.8km/h 4mph /  6.4km/h 82% 0.00in /  0mm 197 W/m2
17:59 62.6 °F /  17 °C 57 °F /  13.9 °C 29.67in /  1004.6hPa Calm   4mph /  6.4km/h 82% 0.00in /  0mm 167 W/m2
18:04 62.7 °F /  17.1 °C 56.5 °F /  13.6 °C 29.67in /  1004.6hPa Calm   4mph /  6.4km/h 80.3% 0.00in /  0mm 169 W/m2
18:09 62.6 °F /  17 °C 56.4 °F /  13.6 °C 29.66in /  1004.3hPa Calm   1mph /  1.6km/h 80.1% 0.00in /  0mm 137 W/m2
18:14 62.6 °F /  17 °C 56.7 °F /  13.7 °C 29.66in /  1004.3hPa Calm   1mph /  1.6km/h 80.9% 0.00in /  0mm 130 W/m2
18:19 62.5 °F /  16.9 °C 56.3 °F /  13.5 °C 29.66in /  1004.3hPa Calm   1mph /  1.6km/h 80.2% 0.00in /  0mm 113 W/m2
18:24 62.3 °F /  16.8 °C 56 °F /  13.3 °C 29.66in /  1004.3hPa Calm   1mph /  1.6km/h 80% 0.00in /  0mm 65 W/m2
18:29 62 °F /  16.7 °C 55.9 °F /  13.3 °C 29.67in /  1004.6hPa Calm   2mph /  3.2km/h 80.2% 0.00in /  0mm 69 W/m2
18:34 61.8 °F /  16.6 °C 56 °F /  13.3 °C 29.67in /  1004.6hPa WSW 0.1mph /  0.2km/h 4mph /  6.4km/h 81.2% 0.00in /  0mm 39 W/m2
18:39 61.7 °F /  16.5 °C 56.1 °F /  13.4 °C 29.67in /  1004.6hPa Calm   4mph /  6.4km/h 81.8% 0.00in /  0mm 33 W/m2
18:44 61.6 °F /  16.4 °C 56 °F /  13.3 °C 29.67in /  1004.6hPa Calm   4mph /  6.4km/h 82% 0.00in /  0mm 35 W/m2
18:49 61.5 °F /  16.4 °C 56 °F /  13.3 °C 29.68in /  1005hPa Calm   4mph /  6.4km/h 82.2% 0.00in /  0mm 30 W/m2
18:54 61.4 °F /  16.3 °C 56 °F /  13.3 °C 29.68in /  1005hPa Calm   4mph /  6.4km/h 82.3% 0.00in /  0mm 35 W/m2
18:59 61.3 °F /  16.3 °C 56.1 °F /  13.4 °C 29.68in /  1005hPa Calm   4mph /  6.4km/h 83% 0.00in /  0mm 37 W/m2
19:04 61.1 °F /  16.2 °C 55.9 °F /  13.3 °C 29.68in /  1005hPa Calm   4mph /  6.4km/h 83% 0.00in /  0mm 37 W/m2
19:09 60.9 °F /  16.1 °C 55.7 °F /  13.2 °C 29.68in /  1005hPa Calm     83% 0.00in /  0mm 37 W/m2
19:14 60.8 °F /  16 °C 55.6 °F /  13.1 °C 29.68in /  1005hPa Calm     83% 0.00in /  0mm 26 W/m2
19:19 60.6 °F /  15.9 °C 55.7 °F /  13.2 °C 29.69in /  1005.3hPa Calm     83.8% 0.00in /  0mm 23 W/m2
19:24 60.5 °F /  15.8 °C 55.6 °F /  13.1 °C 29.69in /  1005.3hPa Calm     84% 0.00in /  0mm 23 W/m2
19:29 60.4 °F /  15.8 °C 55.6 °F /  13.1 °C 29.69in /  1005.3hPa Calm     84.2% 0.00in /  0mm 19 W/m2
19:34 60.4 °F /  15.8 °C 55.8 °F /  13.2 °C 29.69in /  1005.3hPa Calm     85% 0.00in /  0mm 19 W/m2
19:39 60.3 °F /  15.7 °C 55.8 °F /  13.2 °C 29.69in /  1005.3hPa Calm     85% 0.00in /  0mm 18 W/m2
19:44 60.2 °F /  15.7 °C 55.7 °F /  13.2 °C 29.69in /  1005.3hPa Calm     85% 0.00in /  0mm 12 W/m2
19:49 60.1 °F /  15.6 °C 55.6 °F /  13.1 °C 29.69in /  1005.3hPa Calm     85% 0.00in /  0mm 11 W/m2
19:54 60 °F /  15.6 °C 55.4 °F /  13 °C 29.69in /  1005.3hPa Calm     85% 0.00in /  0mm 9 W/m2
19:59 59.8 °F /  15.4 °C 55.6 °F /  13.1 °C 29.69in /  1005.3hPa Calm     86% 0.00in /  0mm 7 W/m2
20:00 59.7 °F /  15.4 °C 55.5 °F /  13.1 °C 29.69in /  1005.3hPa Calm     86% 0.00in /  0mm 5 W/m2
20:09 59.5 °F /  15.3 °C 55.3 °F /  12.9 °C 29.70in /  1005.6hPa Calm     86% 0.00in /  0mm 0 W/m2
20:14 59.4 °F /  15.2 °C 55.3 °F /  12.9 °C 29.70in /  1005.6hPa Calm     86.6% 0.00in /  0mm 0 W/m2
20:19 59.2 °F /  15.1 °C 55.4 °F /  13 °C 29.71in /  1006hPa Calm     87% 0.00in /  0mm 0 W/m2
20:24 59.1 °F /  15.1 °C 55.2 °F /  12.9 °C 29.71in /  1006hPa Calm     87% 0.00in /  0mm 0 W/m2
20:29 58.9 °F /  14.9 °C 55.1 °F /  12.8 °C 29.71in /  1006hPa Calm     87% 0.00in /  0mm 0 W/m2
20:34 58.8 °F /  14.9 °C 54.9 °F /  12.7 °C 29.71in /  1006hPa Calm     87% 0.00in /  0mm 0 W/m2
20:39 58.6 °F /  14.8 °C 54.9 °F /  12.7 °C 29.72in /  1006.3hPa Calm     87.4% 0.00in /  0mm 0 W/m2
20:44 58.5 °F /  14.7 °C 55 °F /  12.8 °C 29.72in /  1006.3hPa Calm     88% 0.00in /  0mm 0 W/m2
20:49 58.4 °F /  14.7 °C 54.9 °F /  12.7 °C 29.72in /  1006.3hPa Calm     88% 0.00in /  0mm 0 W/m2
20:54 58.3 °F /  14.6 °C 54.7 °F /  12.6 °C 29.72in /  1006.3hPa Calm     88% 0.00in /  0mm 0 W/m2
20:59 58.2 °F /  14.6 °C 54.6 °F /  12.6 °C 29.73in /  1006.7hPa Calm     88% 0.00in /  0mm 0 W/m2
21:04 58 °F /  14.4 °C 54.5 °F /  12.5 °C 29.73in /  1006.7hPa Calm     88% 0.00in /  0mm 0 W/m2
21:09 57.9 °F /  14.4 °C 54.4 °F /  12.4 °C 29.73in /  1006.7hPa Calm     88% 0.00in /  0mm 0 W/m2
21:14 57.8 °F /  14.3 °C 54.2 °F /  12.3 °C 29.73in /  1006.7hPa Calm     88% 0.00in /  0mm 0 W/m2
21:19 57.6 °F /  14.2 °C 54.3 °F /  12.4 °C 29.73in /  1006.7hPa Calm     88.6% 0.00in /  0mm 0 W/m2
21:24 57.4 °F /  14.1 °C 54.2 °F /  12.3 °C 29.74in /  1007hPa Calm     89% 0.00in /  0mm 0 W/m2
21:29 57.3 °F /  14.1 °C 54.1 °F /  12.3 °C 29.75in /  1007.3hPa Calm     89% 0.00in /  0mm 0 W/m2
21:34 57.1 °F /  13.9 °C 53.9 °F /  12.2 °C 29.75in /  1007.3hPa Calm     89% 0.00in /  0mm 0 W/m2
21:39 56.9 °F /  13.8 °C 53.8 °F /  12.1 °C 29.75in /  1007.3hPa Calm     89.4% 0.00in /  0mm 0 W/m2
21:44 56.8 °F /  13.8 °C 53.8 °F /  12.1 °C 29.75in /  1007.3hPa Calm     89.9% 0.00in /  0mm 0 W/m2
21:49 56.6 °F /  13.7 °C 53.7 °F /  12.1 °C 29.76in /  1007.7hPa Calm     90% 0.00in /  0mm 0 W/m2
21:54 56.4 °F /  13.6 °C 53.6 °F /  12 °C 29.77in /  1008hPa Calm     90% 0.00in /  0mm 0 W/m2
21:59 56.3 °F /  13.5 °C 53.4 °F /  11.9 °C 29.77in /  1008hPa Calm     90% 0.00in /  0mm 0 W/m2
22:04 56.1 °F /  13.4 °C 53.2 °F /  11.8 °C 29.77in /  1008hPa Calm     90% 0.00in /  0mm 0 W/m2
22:09 55.9 °F /  13.3 °C 53.2 °F /  11.8 °C 29.77in /  1008hPa Calm     90.7% 0.00in /  0mm 0 W/m2
22:14 55.8 °F /  13.2 °C 53.2 °F /  11.8 °C 29.77in /  1008hPa Calm     91% 0.00in /  0mm 0 W/m2
22:19 55.6 °F /  13.1 °C 53.1 °F /  11.7 °C 29.77in /  1008hPa Calm     91% 0.00in /  0mm 0 W/m2
22:24 55.5 °F /  13.1 °C 52.9 °F /  11.6 °C 29.78in /  1008.4hPa Calm     91% 0.00in /  0mm 0 W/m2
22:29 55.4 °F /  13 °C 52.8 °F /  11.6 °C 29.78in /  1008.4hPa Calm     91% 0.00in /  0mm 0 W/m2
22:34 55.3 °F /  12.9 °C 52.7 °F /  11.5 °C 29.78in /  1008.4hPa Calm     91% 0.00in /  0mm 0 W/m2
22:39 55.3 °F /  12.9 °C 52.9 °F /  11.6 °C 29.78in /  1008.4hPa Calm     91.8% 0.00in /  0mm 0 W/m2
22:44 55.2 °F /  12.9 °C 52.9 °F /  11.6 °C 29.79in /  1008.7hPa Calm     92% 0.00in /  0mm 0 W/m2
22:49 55.1 °F /  12.8 °C 52.8 °F /  11.6 °C 29.79in /  1008.7hPa Calm     92% 0.00in /  0mm 0 W/m2
22:54 55.1 °F /  12.8 °C 52.8 °F /  11.6 °C 29.79in /  1008.7hPa Calm     92% 0.00in /  0mm 0 W/m2
22:59 55 °F /  12.8 °C 52.7 °F /  11.5 °C 29.80in /  1009hPa Calm     92% 0.00in /  0mm 0 W/m2
23:04 55 °F /  12.8 °C 52.8 °F /  11.6 °C 29.80in /  1009hPa Calm     92.2% 0.00in /  0mm 0 W/m2
23:09 54.9 °F /  12.7 °C 52.7 °F /  11.5 °C 29.80in /  1009hPa Calm     92.1% 0.00in /  0mm 0 W/m2
23:14 54.8 °F /  12.7 °C 52.6 °F /  11.4 °C 29.80in /  1009hPa Calm     92% 0.00in /  0mm 0 W/m2
23:19 54.7 °F /  12.6 °C 52.5 °F /  11.4 °C 29.80in /  1009hPa Calm     92% 0.00in /  0mm 0 W/m2
23:24 54.6 °F /  12.6 °C 52.4 °F /  11.3 °C 29.81in /  1009.4hPa Calm     92.3% 0.00in /  0mm 0 W/m2
23:29 54.4 °F /  12.4 °C 52.4 °F /  11.3 °C 29.81in /  1009.4hPa Calm     92.9% 0.00in /  0mm 0 W/m2
23:34 54.3 °F /  12.4 °C 52.3 °F /  11.3 °C 29.81in /  1009.4hPa Calm     92.9% 0.00in /  0mm 0 W/m2
23:39 54.2 °F /  12.3 °C 52.2 °F /  11.2 °C 29.81in /  1009.4hPa Calm     93% 0.00in /  0mm 0 W/m2
23:44 54 °F /  12.2 °C 52.1 °F /  11.2 °C 29.81in /  1009.4hPa Calm     93% 0.00in /  0mm 0 W/m2
23:49 53.9 °F /  12.2 °C 51.9 °F /  11.1 °C 29.81in /  1009.4hPa Calm     93% 0.00in /  0mm 0 W/m2
23:54 53.8 °F /  12.1 °C 51.8 °F /  11 °C 29.81in /  1009.4hPa Calm     93% 0.00in /  0mm 0 W/m2
23:59 53.7 °F /  12.1 °C 51.7 °F /  10.9 °C 29.81in /  1009.4hPa Calm     93% 0.00in /  0mm 0 W/m2
Hartford County Weather
Compliments of Weather Underground - 2 mb